Portada
METAR-TAF:

METAR-TAF

Aeroports :

Curtis L. Brown Jr. Field

Elizabethtown, Carolina del Nord, Estats Units d'Amèrica

latitud: 34-36N, longitud: 078-35W, altitud: 40 m

Observació

L'informe es va fer fa 21 minuts, a les 20:55 UTC
Vent 11 kt del Sud/Sud-Est amb ràfegues de 18 kt
Temperatura 28°C
Humitat 70%
Pressió 1017 hPa
Visibilitat: 16.1 km
Núvols disperses a una alçada de 4400 ft
Cel ennuvolat a una alçada de 5000 ft
Cel ennuvolat a una alçada de 7500 ft

METAR: KEYF 242055Z AUTO 15011G18KT 10SM SCT044 BKN050 BKN075 28/22 A3004 RMK AO2 LTG DSNT SW T02790219 60007

Hora: 17:16 (21:16 UTC)


TAF: manca

Observacions i pronòstics meteorològics de més de 4000 aeroports (METAR i TAF).

Les estacions disponibles són els punts grocs i vermells al mapa.

Posi el ratolí al punt desitjat per veure el nom de l'estació.

Feu clic per veure les observacions i els pronòstics meteorològics.

Per canviar el mapa: feu clic els botons verds amb una creu de color negre per apropar; al botó verd amb un guió per allunyar la imatge; o en les fletxes verdes per a mapes adjacents.


METAR-TAF: